sensor_id;sensor_type;location;lat;lon;timestamp;P1;durP1;ratioP1;P2;durP2;ratioP2
17987;SDS011;9119;50.932;5.342;2023-03-14T00:01:59;9.17;;;1.50;;
17987;SDS011;9119;50.932;5.342;2023-03-14T00:04:24;7.03;;;1.90;;
17987;SDS011;9119;50.932;5.342;2023-03-14T00:06:50;9.07;;;1.73;;
17987;SDS011;9119;50.932;5.342;2023-03-14T00:09:16;9.07;;;1.90;;
17987;SDS011;9119;50.932;5.342;2023-03-14T00:11:42;8.57;;;1.80;;
17987;SDS011;9119;50.932;5.342;2023-03-14T00:14:08;7.73;;;1.30;;
17987;SDS011;9119;50.932;5.342;2023-03-14T00:16:36;4.37;;;1.50;;
17987;SDS011;9119;50.932;5.342;2023-03-14T00:19:02;7.87;;;1.70;;
17987;SDS011;9119;50.932;5.342;2023-03-14T00:21:28;13.73;;;2.43;;
17987;SDS011;9119;50.932;5.342;2023-03-14T00:23:53;9.17;;;1.70;;
17987;SDS011;9119;50.932;5.342;2023-03-14T00:26:20;4.87;;;1.67;;
17987;SDS011;9119;50.932;5.342;2023-03-14T00:28:46;6.07;;;1.33;;
17987;SDS011;9119;50.932;5.342;2023-03-14T00:31:15;5.33;;;1.33;;
17987;SDS011;9119;50.932;5.342;2023-03-14T00:33:41;5.87;;;1.10;;
17987;SDS011;9119;50.932;5.342;2023-03-14T00:36:09;6.80;;;1.40;;
17987;SDS011;9119;50.932;5.342;2023-03-14T00:38:37;6.33;;;1.20;;
17987;SDS011;9119;50.932;5.342;2023-03-14T00:41:05;7.37;;;1.40;;
17987;SDS011;9119;50.932;5.342;2023-03-14T00:43:32;10.50;;;1.90;;
17987;SDS011;9119;50.932;5.342;2023-03-14T00:45:57;8.40;;;1.43;;
17987;SDS011;9119;50.932;5.342;2023-03-14T00:48:23;5.30;;;1.10;;
17987;SDS011;9119;50.932;5.342;2023-03-14T00:50:49;8.37;;;1.87;;
17987;SDS011;9119;50.932;5.342;2023-03-14T00:53:15;7.63;;;1.40;;
17987;SDS011;9119;50.932;5.342;2023-03-14T00:55:41;11.03;;;1.80;;
17987;SDS011;9119;50.932;5.342;2023-03-14T00:58:08;6.03;;;1.50;;
17987;SDS011;9119;50.932;5.342;2023-03-14T01:00:34;6.90;;;1.47;;
17987;SDS011;9119;50.932;5.342;2023-03-14T01:03:01;7.13;;;1.60;;
17987;SDS011;9119;50.932;5.342;2023-03-14T01:05:27;9.43;;;1.50;;
17987;SDS011;9119;50.932;5.342;2023-03-14T01:07:53;4.57;;;1.63;;
17987;SDS011;9119;50.932;5.342;2023-03-14T01:10:19;10.60;;;1.80;;
17987;SDS011;9119;50.932;5.342;2023-03-14T01:12:44;8.27;;;1.70;;
17987;SDS011;9119;50.932;5.342;2023-03-14T01:15:10;7.67;;;1.50;;
17987;SDS011;9119;50.932;5.342;2023-03-14T01:17:36;7.30;;;1.27;;
17987;SDS011;9119;50.932;5.342;2023-03-14T01:20:04;12.97;;;1.80;;
17987;SDS011;9119;50.932;5.342;2023-03-14T01:22:34;10.37;;;2.00;;
17987;SDS011;9119;50.932;5.342;2023-03-14T01:25:00;9.93;;;1.83;;
17987;SDS011;9119;50.932;5.342;2023-03-14T01:27:25;12.00;;;1.80;;
17987;SDS011;9119;50.932;5.342;2023-03-14T01:29:51;14.17;;;1.87;;
17987;SDS011;9119;50.932;5.342;2023-03-14T01:32:17;14.87;;;2.30;;
17987;SDS011;9119;50.932;5.342;2023-03-14T01:34:42;10.50;;;1.83;;
17987;SDS011;9119;50.932;5.342;2023-03-14T01:37:08;9.13;;;1.93;;
17987;SDS011;9119;50.932;5.342;2023-03-14T01:39:34;16.50;;;2.23;;
17987;SDS011;9119;50.932;5.342;2023-03-14T01:42:00;11.90;;;2.47;;
17987;SDS011;9119;50.932;5.342;2023-03-14T01:44:26;6.93;;;1.80;;
17987;SDS011;9119;50.932;5.342;2023-03-14T01:46:51;5.13;;;1.60;;
17987;SDS011;9119;50.932;5.342;2023-03-14T01:57:23;14.53;;;2.47;;
17987;SDS011;9119;50.932;5.342;2023-03-14T02:00:03;10.03;;;1.70;;
17987;SDS011;9119;50.932;5.342;2023-03-14T02:02:39;10.97;;;1.90;;
17987;SDS011;9119;50.932;5.342;2023-03-14T02:05:08;9.07;;;2.13;;
17987;SDS011;9119;50.932;5.342;2023-03-14T02:07:37;20.00;;;2.73;;
17987;SDS011;9119;50.932;5.342;2023-03-14T02:10:16;16.73;;;2.50;;
17987;SDS011;9119;50.932;5.342;2023-03-14T02:12:45;15.60;;;2.60;;
17987;SDS011;9119;50.932;5.342;2023-03-14T02:15:12;9.77;;;2.20;;
17987;SDS011;9119;50.932;5.342;2023-03-14T02:17:39;9.00;;;1.77;;
17987;SDS011;9119;50.932;5.342;2023-03-14T02:22:33;10.83;;;2.23;;
17987;SDS011;9119;50.932;5.342;2023-03-14T02:25:10;13.43;;;1.70;;
17987;SDS011;9119;50.932;5.342;2023-03-14T02:27:40;6.90;;;1.90;;
17987;SDS011;9119;50.932;5.342;2023-03-14T02:30:08;13.07;;;2.63;;
17987;SDS011;9119;50.932;5.342;2023-03-14T02:32:38;21.87;;;2.70;;
17987;SDS011;9119;50.932;5.342;2023-03-14T02:35:09;13.63;;;2.57;;
17987;SDS011;9119;50.932;5.342;2023-03-14T02:37:41;9.23;;;2.00;;
17987;SDS011;9119;50.932;5.342;2023-03-14T02:40:18;13.87;;;2.40;;
17987;SDS011;9119;50.932;5.342;2023-03-14T02:42:44;7.97;;;1.97;;
17987;SDS011;9119;50.932;5.342;2023-03-14T02:47:37;8.37;;;1.50;;
17987;SDS011;9119;50.932;5.342;2023-03-14T02:50:09;7.40;;;1.80;;
17987;SDS011;9119;50.932;5.342;2023-03-14T02:52:38;11.30;;;1.70;;
17987;SDS011;9119;50.932;5.342;2023-03-14T02:55:04;7.83;;;1.67;;
17987;SDS011;9119;50.932;5.342;2023-03-14T02:57:30;12.50;;;2.13;;
17987;SDS011;9119;50.932;5.342;2023-03-14T02:59:59;10.37;;;2.10;;
17987;SDS011;9119;50.932;5.342;2023-03-14T03:02:25;9.77;;;2.00;;
17987;SDS011;9119;50.932;5.342;2023-03-14T03:04:51;8.40;;;1.57;;
17987;SDS011;9119;50.932;5.342;2023-03-14T03:07:17;10.90;;;2.00;;
17987;SDS011;9119;50.932;5.342;2023-03-14T03:09:44;12.57;;;1.93;;
17987;SDS011;9119;50.932;5.342;2023-03-14T03:12:09;9.00;;;1.83;;
17987;SDS011;9119;50.932;5.342;2023-03-14T03:14:35;10.03;;;1.87;;
17987;SDS011;9119;50.932;5.342;2023-03-14T03:17:02;8.57;;;1.10;;
17987;SDS011;9119;50.932;5.342;2023-03-14T03:19:31;5.30;;;1.30;;
17987;SDS011;9119;50.932;5.342;2023-03-14T03:22:01;5.90;;;1.57;;
17987;SDS011;9119;50.932;5.342;2023-03-14T03:24:26;5.70;;;1.37;;
17987;SDS011;9119;50.932;5.342;2023-03-14T03:26:52;7.50;;;1.23;;
17987;SDS011;9119;50.932;5.342;2023-03-14T03:29:18;11.80;;;1.30;;
17987;SDS011;9119;50.932;5.342;2023-03-14T03:31:44;6.93;;;1.40;;
17987;SDS011;9119;50.932;5.342;2023-03-14T03:34:11;5.90;;;1.40;;
17987;SDS011;9119;50.932;5.342;2023-03-14T03:36:37;6.87;;;1.20;;
17987;SDS011;9119;50.932;5.342;2023-03-14T03:39:03;3.80;;;1.50;;
17987;SDS011;9119;50.932;5.342;2023-03-14T03:41:29;8.97;;;1.40;;
17987;SDS011;9119;50.932;5.342;2023-03-14T03:43:55;6.37;;;1.50;;
17987;SDS011;9119;50.932;5.342;2023-03-14T03:46:21;11.07;;;1.77;;
17987;SDS011;9119;50.932;5.342;2023-03-14T03:48:47;6.73;;;1.50;;
17987;SDS011;9119;50.932;5.342;2023-03-14T03:51:13;9.13;;;2.07;;
17987;SDS011;9119;50.932;5.342;2023-03-14T03:53:40;14.40;;;2.40;;
17987;SDS011;9119;50.932;5.342;2023-03-14T03:56:07;15.30;;;3.33;;
17987;SDS011;9119;50.932;5.342;2023-03-14T03:58:33;8.47;;;2.00;;
17987;SDS011;9119;50.932;5.342;2023-03-14T04:00:59;15.10;;;2.40;;
17987;SDS011;9119;50.932;5.342;2023-03-14T04:03:24;11.67;;;2.47;;
17987;SDS011;9119;50.932;5.342;2023-03-14T04:05:57;14.87;;;2.27;;
17987;SDS011;9119;50.932;5.342;2023-03-14T04:08:29;15.83;;;3.10;;
17987;SDS011;9119;50.932;5.342;2023-03-14T04:10:58;15.73;;;2.73;;
17987;SDS011;9119;50.932;5.342;2023-03-14T04:13:25;11.17;;;1.80;;
17987;SDS011;9119;50.932;5.342;2023-03-14T04:15:52;16.40;;;3.03;;
17987;SDS011;9119;50.932;5.342;2023-03-14T04:18:18;13.90;;;3.17;;
17987;SDS011;9119;50.932;5.342;2023-03-14T04:20:44;12.57;;;1.83;;
17987;SDS011;9119;50.932;5.342;2023-03-14T04:23:10;8.30;;;1.67;;
17987;SDS011;9119;50.932;5.342;2023-03-14T04:25:36;8.03;;;1.50;;
17987;SDS011;9119;50.932;5.342;2023-03-14T04:28:02;14.00;;;1.83;;
17987;SDS011;9119;50.932;5.342;2023-03-14T04:30:29;7.77;;;1.83;;
17987;SDS011;9119;50.932;5.342;2023-03-14T04:32:55;4.97;;;1.37;;
17987;SDS011;9119;50.932;5.342;2023-03-14T04:35:20;5.73;;;1.40;;
17987;SDS011;9119;50.932;5.342;2023-03-14T04:37:46;4.33;;;1.23;;
17987;SDS011;9119;50.932;5.342;2023-03-14T04:40:14;8.40;;;1.53;;
17987;SDS011;9119;50.932;5.342;2023-03-14T04:42:40;5.57;;;1.50;;
17987;SDS011;9119;50.932;5.342;2023-03-14T04:45:06;5.20;;;1.20;;
17987;SDS011;9119;50.932;5.342;2023-03-14T04:47:32;3.83;;;1.00;;
17987;SDS011;9119;50.932;5.342;2023-03-14T04:49:58;4.47;;;0.90;;
17987;SDS011;9119;50.932;5.342;2023-03-14T04:52:24;2.23;;;0.80;;
17987;SDS011;9119;50.932;5.342;2023-03-14T04:54:50;6.90;;;0.80;;
17987;SDS011;9119;50.932;5.342;2023-03-14T04:57:16;2.20;;;0.80;;
17987;SDS011;9119;50.932;5.342;2023-03-14T04:59:41;2.43;;;0.70;;
17987;SDS011;9119;50.932;5.342;2023-03-14T05:02:07;3.53;;;0.73;;
17987;SDS011;9119;50.932;5.342;2023-03-14T05:04:33;3.67;;;0.63;;
17987;SDS011;9119;50.932;5.342;2023-03-14T05:06:59;1.70;;;0.63;;
17987;SDS011;9119;50.932;5.342;2023-03-14T05:09:25;3.20;;;0.80;;
17987;SDS011;9119;50.932;5.342;2023-03-14T05:11:51;2.57;;;0.50;;
17987;SDS011;9119;50.932;5.342;2023-03-14T05:14:17;3.13;;;1.30;;
17987;SDS011;9119;50.932;5.342;2023-03-14T05:16:42;1.23;;;0.40;;
17987;SDS011;9119;50.932;5.342;2023-03-14T05:19:08;2.43;;;0.80;;
17987;SDS011;9119;50.932;5.342;2023-03-14T05:21:35;3.10;;;0.70;;
17987;SDS011;9119;50.932;5.342;2023-03-14T05:24:00;5.43;;;1.13;;
17987;SDS011;9119;50.932;5.342;2023-03-14T05:26:26;2.77;;;0.60;;
17987;SDS011;9119;50.932;5.342;2023-03-14T05:28:51;4.13;;;0.53;;
17987;SDS011;9119;50.932;5.342;2023-03-14T05:31:17;2.93;;;0.50;;
17987;SDS011;9119;50.932;5.342;2023-03-14T05:33:43;1.60;;;0.50;;
17987;SDS011;9119;50.932;5.342;2023-03-14T05:36:09;1.30;;;0.70;;
17987;SDS011;9119;50.932;5.342;2023-03-14T05:38:34;2.60;;;0.67;;
17987;SDS011;9119;50.932;5.342;2023-03-14T05:41:00;2.70;;;0.63;;
17987;SDS011;9119;50.932;5.342;2023-03-14T05:43:26;2.60;;;0.90;;
17987;SDS011;9119;50.932;5.342;2023-03-14T05:45:51;2.83;;;0.80;;
17987;SDS011;9119;50.932;5.342;2023-03-14T05:48:17;4.07;;;1.10;;
17987;SDS011;9119;50.932;5.342;2023-03-14T05:50:43;3.80;;;1.10;;
17987;SDS011;9119;50.932;5.342;2023-03-14T05:53:09;3.83;;;1.13;;
17987;SDS011;9119;50.932;5.342;2023-03-14T05:55:35;3.87;;;1.40;;
17987;SDS011;9119;50.932;5.342;2023-03-14T05:58:00;3.33;;;1.23;;
17987;SDS011;9119;50.932;5.342;2023-03-14T06:00:26;5.20;;;1.80;;
17987;SDS011;9119;50.932;5.342;2023-03-14T06:02:52;2.77;;;1.23;;
17987;SDS011;9119;50.932;5.342;2023-03-14T06:05:18;2.77;;;1.50;;
17987;SDS011;9119;50.932;5.342;2023-03-14T06:07:43;2.93;;;1.43;;
17987;SDS011;9119;50.932;5.342;2023-03-14T06:10:09;4.93;;;1.60;;
17987;SDS011;9119;50.932;5.342;2023-03-14T06:12:35;4.57;;;1.93;;
17987;SDS011;9119;50.932;5.342;2023-03-14T06:15:01;5.03;;;2.27;;
17987;SDS011;9119;50.932;5.342;2023-03-14T06:17:26;5.70;;;1.90;;
17987;SDS011;9119;50.932;5.342;2023-03-14T06:19:52;4.10;;;1.40;;
17987;SDS011;9119;50.932;5.342;2023-03-14T06:22:18;3.13;;;1.77;;
17987;SDS011;9119;50.932;5.342;2023-03-14T06:24:44;3.47;;;2.27;;
17987;SDS011;9119;50.932;5.342;2023-03-14T06:27:10;5.97;;;1.47;;
17987;SDS011;9119;50.932;5.342;2023-03-14T06:29:36;7.47;;;1.97;;
17987;SDS011;9119;50.932;5.342;2023-03-14T06:32:01;5.80;;;2.10;;
17987;SDS011;9119;50.932;5.342;2023-03-14T06:34:27;6.73;;;2.17;;
17987;SDS011;9119;50.932;5.342;2023-03-14T06:36:53;6.93;;;2.37;;
17987;SDS011;9119;50.932;5.342;2023-03-14T06:39:19;3.53;;;1.90;;
17987;SDS011;9119;50.932;5.342;2023-03-14T06:41:45;6.10;;;3.30;;
17987;SDS011;9119;50.932;5.342;2023-03-14T06:44:10;6.07;;;3.07;;
17987;SDS011;9119;50.932;5.342;2023-03-14T06:46:36;5.00;;;2.30;;
17987;SDS011;9119;50.932;5.342;2023-03-14T06:49:02;4.47;;;1.70;;
17987;SDS011;9119;50.932;5.342;2023-03-14T06:51:28;3.03;;;1.40;;
17987;SDS011;9119;50.932;5.342;2023-03-14T06:53:53;3.47;;;1.60;;
17987;SDS011;9119;50.932;5.342;2023-03-14T06:56:19;4.20;;;1.60;;
17987;SDS011;9119;50.932;5.342;2023-03-14T06:58:44;7.20;;;1.60;;
17987;SDS011;9119;50.932;5.342;2023-03-14T07:01:21;2.20;;;1.77;;
17987;SDS011;9119;50.932;5.342;2023-03-14T07:03:49;3.40;;;1.43;;
17987;SDS011;9119;50.932;5.342;2023-03-14T07:06:15;2.60;;;1.87;;
17987;SDS011;9119;50.932;5.342;2023-03-14T07:08:41;4.00;;;1.83;;
17987;SDS011;9119;50.932;5.342;2023-03-14T07:11:07;4.03;;;2.13;;
17987;SDS011;9119;50.932;5.342;2023-03-14T07:13:36;5.17;;;1.97;;
17987;SDS011;9119;50.932;5.342;2023-03-14T07:16:02;4.60;;;2.20;;
17987;SDS011;9119;50.932;5.342;2023-03-14T07:18:28;3.57;;;1.40;;
17987;SDS011;9119;50.932;5.342;2023-03-14T07:20:54;3.23;;;1.77;;
17987;SDS011;9119;50.932;5.342;2023-03-14T07:23:20;5.70;;;1.73;;
17987;SDS011;9119;50.932;5.342;2023-03-14T07:25:45;4.20;;;1.93;;
17987;SDS011;9119;50.932;5.342;2023-03-14T07:28:11;6.70;;;2.17;;
17987;SDS011;9119;50.932;5.342;2023-03-14T07:30:36;3.50;;;1.90;;
17987;SDS011;9119;50.932;5.342;2023-03-14T07:33:02;3.33;;;2.07;;
17987;SDS011;9119;50.932;5.342;2023-03-14T07:35:28;24.57;;;5.77;;
17987;SDS011;9119;50.932;5.342;2023-03-14T07:37:54;4.90;;;2.40;;
17987;SDS011;9119;50.932;5.342;2023-03-14T07:40:19;5.33;;;2.33;;
17987;SDS011;9119;50.932;5.342;2023-03-14T07:42:45;5.70;;;2.73;;
17987;SDS011;9119;50.932;5.342;2023-03-14T07:45:11;4.37;;;2.13;;
17987;SDS011;9119;50.932;5.342;2023-03-14T07:47:37;6.00;;;1.80;;
17987;SDS011;9119;50.932;5.342;2023-03-14T07:50:03;6.40;;;2.10;;
17987;SDS011;9119;50.932;5.342;2023-03-14T07:52:29;6.37;;;1.90;;
17987;SDS011;9119;50.932;5.342;2023-03-14T07:54:55;8.67;;;2.40;;
17987;SDS011;9119;50.932;5.342;2023-03-14T07:57:21;1.70;;;1.07;;
17987;SDS011;9119;50.932;5.342;2023-03-14T07:59:48;2.07;;;0.90;;
17987;SDS011;9119;50.932;5.342;2023-03-14T08:02:15;4.03;;;1.20;;
17987;SDS011;9119;50.932;5.342;2023-03-14T08:04:41;4.40;;;1.60;;
17987;SDS011;9119;50.932;5.342;2023-03-14T08:07:07;5.90;;;1.40;;
17987;SDS011;9119;50.932;5.342;2023-03-14T08:09:32;3.33;;;1.60;;
17987;SDS011;9119;50.932;5.342;2023-03-14T08:11:58;1.73;;;1.50;;
17987;SDS011;9119;50.932;5.342;2023-03-14T08:14:24;2.90;;;1.57;;
17987;SDS011;9119;50.932;5.342;2023-03-14T08:16:50;5.23;;;1.53;;
17987;SDS011;9119;50.932;5.342;2023-03-14T08:19:16;3.63;;;1.53;;
17987;SDS011;9119;50.932;5.342;2023-03-14T08:21:42;3.33;;;1.40;;
17987;SDS011;9119;50.932;5.342;2023-03-14T08:24:08;2.73;;;1.03;;
17987;SDS011;9119;50.932;5.342;2023-03-14T08:26:33;2.67;;;1.50;;
17987;SDS011;9119;50.932;5.342;2023-03-14T08:28:59;4.90;;;1.30;;
17987;SDS011;9119;50.932;5.342;2023-03-14T08:31:25;3.50;;;1.50;;
17987;SDS011;9119;50.932;5.342;2023-03-14T08:33:51;3.23;;;1.80;;
17987;SDS011;9119;50.932;5.342;2023-03-14T08:36:18;2.70;;;2.10;;
17987;SDS011;9119;50.932;5.342;2023-03-14T08:38:44;6.20;;;3.00;;
17987;SDS011;9119;50.932;5.342;2023-03-14T08:41:10;6.00;;;2.83;;
17987;SDS011;9119;50.932;5.342;2023-03-14T08:43:36;7.80;;;2.93;;
17987;SDS011;9119;50.932;5.342;2023-03-14T08:46:02;3.73;;;2.60;;
17987;SDS011;9119;50.932;5.342;2023-03-14T08:48:28;5.63;;;3.50;;
17987;SDS011;9119;50.932;5.342;2023-03-14T08:51:03;5.00;;;2.20;;
17987;SDS011;9119;50.932;5.342;2023-03-14T08:53:37;4.43;;;2.10;;
17987;SDS011;9119;50.932;5.342;2023-03-14T08:56:03;5.57;;;2.10;;
17987;SDS011;9119;50.932;5.342;2023-03-14T08:58:31;5.13;;;2.47;;
17987;SDS011;9119;50.932;5.342;2023-03-14T09:00:57;4.90;;;2.00;;
17987;SDS011;9119;50.932;5.342;2023-03-14T09:03:23;5.80;;;2.30;;
17987;SDS011;9119;50.932;5.342;2023-03-14T09:05:51;7.77;;;2.37;;
17987;SDS011;9119;50.932;5.342;2023-03-14T09:08:18;3.33;;;1.97;;
17987;SDS011;9119;50.932;5.342;2023-03-14T09:10:44;4.77;;;2.40;;
17987;SDS011;9119;50.932;5.342;2023-03-14T09:13:09;6.00;;;2.57;;
17987;SDS011;9119;50.932;5.342;2023-03-14T09:15:35;5.37;;;2.57;;
17987;SDS011;9119;50.932;5.342;2023-03-14T09:18:01;5.63;;;2.80;;
17987;SDS011;9119;50.932;5.342;2023-03-14T09:20:27;7.80;;;2.70;;
17987;SDS011;9119;50.932;5.342;2023-03-14T09:22:53;7.27;;;3.00;;
17987;SDS011;9119;50.932;5.342;2023-03-14T09:25:18;9.73;;;2.57;;
17987;SDS011;9119;50.932;5.342;2023-03-14T09:27:44;8.27;;;2.83;;
17987;SDS011;9119;50.932;5.342;2023-03-14T09:30:10;6.80;;;2.70;;
17987;SDS011;9119;50.932;5.342;2023-03-14T09:32:36;7.57;;;2.60;;
17987;SDS011;9119;50.932;5.342;2023-03-14T09:35:02;8.07;;;3.10;;
17987;SDS011;9119;50.932;5.342;2023-03-14T09:37:28;8.03;;;2.60;;
17987;SDS011;9119;50.932;5.342;2023-03-14T09:39:53;3.20;;;2.50;;
17987;SDS011;9119;50.932;5.342;2023-03-14T09:42:21;8.53;;;3.00;;
17987;SDS011;9119;50.932;5.342;2023-03-14T09:44:57;6.30;;;2.70;;
17987;SDS011;9119;50.932;5.342;2023-03-14T09:47:25;5.07;;;2.70;;
17987;SDS011;9119;50.932;5.342;2023-03-14T09:49:52;5.30;;;3.63;;
17987;SDS011;9119;50.932;5.342;2023-03-14T09:52:22;8.57;;;2.80;;
17987;SDS011;9119;50.932;5.342;2023-03-14T09:54:52;7.83;;;2.90;;
17987;SDS011;9119;50.932;5.342;2023-03-14T09:57:24;5.90;;;2.47;;
17987;SDS011;9119;50.932;5.342;2023-03-14T09:59:52;3.53;;;2.20;;
17987;SDS011;9119;50.932;5.342;2023-03-14T10:02:22;5.93;;;2.03;;
17987;SDS011;9119;50.932;5.342;2023-03-14T10:04:51;7.73;;;2.40;;
17987;SDS011;9119;50.932;5.342;2023-03-14T10:07:29;4.33;;;1.77;;
17987;SDS011;9119;50.932;5.342;2023-03-14T10:09:56;6.33;;;1.60;;
17987;SDS011;9119;50.932;5.342;2023-03-14T10:12:32;1.30;;;1.20;;
17987;SDS011;9119;50.932;5.342;2023-03-14T10:15:09;4.43;;;1.70;;
17987;SDS011;9119;50.932;5.342;2023-03-14T10:17:41;4.03;;;1.30;;
17987;SDS011;9119;50.932;5.342;2023-03-14T10:22:57;5.73;;;1.93;;
17987;SDS011;9119;50.932;5.342;2023-03-14T10:25:40;3.43;;;1.90;;
17987;SDS011;9119;50.932;5.342;2023-03-14T10:28:11;10.60;;;2.20;;
17987;SDS011;9119;50.932;5.342;2023-03-14T10:30:52;11.57;;;2.97;;
17987;SDS011;9119;50.932;5.342;2023-03-14T10:33:20;6.40;;;3.30;;
17987;SDS011;9119;50.932;5.342;2023-03-14T10:35:54;10.47;;;2.47;;
17987;SDS011;9119;50.932;5.342;2023-03-14T10:38:23;4.93;;;1.90;;
17987;SDS011;9119;50.932;5.342;2023-03-14T10:40:52;3.60;;;1.90;;
17987;SDS011;9119;50.932;5.342;2023-03-14T10:43:21;8.77;;;2.20;;
17987;SDS011;9119;50.932;5.342;2023-03-14T10:45:55;3.93;;;1.47;;
17987;SDS011;9119;50.932;5.342;2023-03-14T10:48:41;8.53;;;1.77;;
17987;SDS011;9119;50.932;5.342;2023-03-14T10:56:33;5.53;;;1.50;;
17987;SDS011;9119;50.932;5.342;2023-03-14T10:59:00;8.50;;;1.60;;
17987;SDS011;9119;50.932;5.342;2023-03-14T11:15:09;4.90;;;1.37;;
17987;SDS011;9119;50.932;5.342;2023-03-14T11:17:46;2.90;;;1.30;;
17987;SDS011;9119;50.932;5.342;2023-03-14T11:20:33;2.53;;;1.03;;
17987;SDS011;9119;50.932;5.342;2023-03-14T11:23:10;3.77;;;1.60;;
17987;SDS011;9119;50.932;5.342;2023-03-14T11:25:43;3.63;;;1.50;;
17987;SDS011;9119;50.932;5.342;2023-03-14T11:28:27;5.23;;;1.20;;
17987;SDS011;9119;50.932;5.342;2023-03-14T11:31:12;7.87;;;1.80;;
17987;SDS011;9119;50.932;5.342;2023-03-14T11:33:47;3.40;;;1.50;;
17987;SDS011;9119;50.932;5.342;2023-03-14T11:36:31;15.13;;;5.73;;
17987;SDS011;9119;50.932;5.342;2023-03-14T11:39:03;4.63;;;1.80;;
17987;SDS011;9119;50.932;5.342;2023-03-14T11:41:37;6.80;;;2.20;;
17987;SDS011;9119;50.932;5.342;2023-03-14T11:44:24;3.07;;;2.00;;
17987;SDS011;9119;50.932;5.342;2023-03-14T11:47:05;2.10;;;1.70;;
17987;SDS011;9119;50.932;5.342;2023-03-14T11:52:50;3.37;;;1.70;;
17987;SDS011;9119;50.932;5.342;2023-03-14T11:55:27;3.50;;;1.93;;
17987;SDS011;9119;50.932;5.342;2023-03-14T11:58:05;4.07;;;2.20;;
17987;SDS011;9119;50.932;5.342;2023-03-14T12:00:40;5.87;;;2.30;;
17987;SDS011;9119;50.932;5.342;2023-03-14T12:08:50;4.23;;;2.10;;
17987;SDS011;9119;50.932;5.342;2023-03-14T12:13:57;6.73;;;2.70;;
17987;SDS011;9119;50.932;5.342;2023-03-14T12:18:48;4.13;;;2.10;;
17987;SDS011;9119;50.932;5.342;2023-03-14T12:21:15;3.93;;;1.80;;
17987;SDS011;9119;50.932;5.342;2023-03-14T12:23:55;6.80;;;2.07;;
17987;SDS011;9119;50.932;5.342;2023-03-14T12:26:23;7.67;;;2.30;;
17987;SDS011;9119;50.932;5.342;2023-03-14T12:29:14;6.53;;;2.00;;
17987;SDS011;9119;50.932;5.342;2023-03-14T12:47:56;8.10;;;1.57;;
17987;SDS011;9119;50.932;5.342;2023-03-14T12:50:31;5.93;;;1.40;;
17987;SDS011;9119;50.932;5.342;2023-03-14T12:56:06;21.03;;;2.60;;
17987;SDS011;9119;50.932;5.342;2023-03-14T13:01:46;11.30;;;2.10;;
17987;SDS011;9119;50.932;5.342;2023-03-14T13:04:18;17.87;;;3.63;;
17987;SDS011;9119;50.932;5.342;2023-03-14T13:06:55;17.30;;;2.40;;
17987;SDS011;9119;50.932;5.342;2023-03-14T13:12:14;25.50;;;2.70;;
17987;SDS011;9119;50.932;5.342;2023-03-14T13:14:47;12.90;;;2.30;;
17987;SDS011;9119;50.932;5.342;2023-03-14T13:17:15;14.40;;;2.20;;
17987;SDS011;9119;50.932;5.342;2023-03-14T13:19:52;17.27;;;2.70;;
17987;SDS011;9119;50.932;5.342;2023-03-14T13:22:25;19.37;;;2.93;;
17987;SDS011;9119;50.932;5.342;2023-03-14T13:24:58;12.20;;;3.10;;
17987;SDS011;9119;50.932;5.342;2023-03-14T13:27:30;15.37;;;3.50;;
17987;SDS011;9119;50.932;5.342;2023-03-14T13:29:57;25.47;;;3.17;;
17987;SDS011;9119;50.932;5.342;2023-03-14T13:32:27;22.03;;;2.97;;
17987;SDS011;9119;50.932;5.342;2023-03-14T13:34:59;17.83;;;3.87;;
17987;SDS011;9119;50.932;5.342;2023-03-14T13:37:26;17.30;;;3.47;;
17987;SDS011;9119;50.932;5.342;2023-03-14T13:39:55;15.40;;;3.80;;
17987;SDS011;9119;50.932;5.342;2023-03-14T13:42:27;16.97;;;3.50;;
17987;SDS011;9119;50.932;5.342;2023-03-14T13:44:54;12.43;;;3.27;;
17987;SDS011;9119;50.932;5.342;2023-03-14T13:47:22;20.57;;;4.20;;
17987;SDS011;9119;50.932;5.342;2023-03-14T13:49:50;25.47;;;4.10;;
17987;SDS011;9119;50.932;5.342;2023-03-14T13:55:02;31.30;;;4.50;;
17987;SDS011;9119;50.932;5.342;2023-03-14T14:00:28;12.07;;;3.50;;
17987;SDS011;9119;50.932;5.342;2023-03-14T14:02:55;19.53;;;3.30;;
17987;SDS011;9119;50.932;5.342;2023-03-14T14:05:28;26.50;;;4.27;;
17987;SDS011;9119;50.932;5.342;2023-03-14T14:07:56;18.60;;;4.10;;
17987;SDS011;9119;50.932;5.342;2023-03-14T14:10:25;17.73;;;3.10;;
17987;SDS011;9119;50.932;5.342;2023-03-14T14:13:00;13.23;;;3.23;;
17987;SDS011;9119;50.932;5.342;2023-03-14T14:15:29;24.27;;;3.60;;
17987;SDS011;9119;50.932;5.342;2023-03-14T14:18:00;15.10;;;3.97;;
17987;SDS011;9119;50.932;5.342;2023-03-14T14:20:30;12.20;;;3.00;;
17987;SDS011;9119;50.932;5.342;2023-03-14T14:22:59;13.17;;;2.30;;
17987;SDS011;9119;50.932;5.342;2023-03-14T14:25:31;11.93;;;2.37;;
17987;SDS011;9119;50.932;5.342;2023-03-14T14:27:58;12.50;;;1.80;;
17987;SDS011;9119;50.932;5.342;2023-03-14T14:30:26;13.73;;;1.90;;
17987;SDS011;9119;50.932;5.342;2023-03-14T14:33:09;20.80;;;2.50;;
17987;SDS011;9119;50.932;5.342;2023-03-14T14:35:42;9.87;;;2.00;;
17987;SDS011;9119;50.932;5.342;2023-03-14T14:38:23;9.83;;;3.23;;
17987;SDS011;9119;50.932;5.342;2023-03-14T14:40:50;10.40;;;2.67;;
17987;SDS011;9119;50.932;5.342;2023-03-14T14:43:23;11.00;;;2.63;;
17987;SDS011;9119;50.932;5.342;2023-03-14T14:45:52;15.13;;;2.90;;
17987;SDS011;9119;50.932;5.342;2023-03-14T14:48:23;8.47;;;1.97;;
17987;SDS011;9119;50.932;5.342;2023-03-14T14:50:54;13.20;;;2.80;;
17987;SDS011;9119;50.932;5.342;2023-03-14T14:56:00;9.47;;;2.20;;
17987;SDS011;9119;50.932;5.342;2023-03-14T14:58:43;11.40;;;3.73;;
17987;SDS011;9119;50.932;5.342;2023-03-14T15:01:14;12.80;;;2.63;;
17987;SDS011;9119;50.932;5.342;2023-03-14T15:04:00;8.63;;;2.30;;
17987;SDS011;9119;50.932;5.342;2023-03-14T15:06:29;10.97;;;2.67;;
17987;SDS011;9119;50.932;5.342;2023-03-14T15:08:56;17.23;;;2.53;;
17987;SDS011;9119;50.932;5.342;2023-03-14T15:11:23;12.30;;;2.47;;
17987;SDS011;9119;50.932;5.342;2023-03-14T15:13:53;15.67;;;2.10;;
17987;SDS011;9119;50.932;5.342;2023-03-14T15:16:29;9.00;;;2.47;;
17987;SDS011;9119;50.932;5.342;2023-03-14T15:18:56;9.33;;;2.37;;
17987;SDS011;9119;50.932;5.342;2023-03-14T15:21:24;10.47;;;2.80;;
17987;SDS011;9119;50.932;5.342;2023-03-14T15:23:51;10.40;;;2.97;;
17987;SDS011;9119;50.932;5.342;2023-03-14T15:26:18;14.80;;;2.70;;
17987;SDS011;9119;50.932;5.342;2023-03-14T15:28:46;15.30;;;3.63;;
17987;SDS011;9119;50.932;5.342;2023-03-14T15:31:12;15.67;;;2.50;;
17987;SDS011;9119;50.932;5.342;2023-03-14T15:33:39;10.90;;;2.13;;
17987;SDS011;9119;50.932;5.342;2023-03-14T15:36:06;14.97;;;2.40;;
17987;SDS011;9119;50.932;5.342;2023-03-14T15:38:50;12.63;;;2.27;;
17987;SDS011;9119;50.932;5.342;2023-03-14T15:41:17;9.00;;;1.87;;
17987;SDS011;9119;50.932;5.342;2023-03-14T15:43:43;8.43;;;2.13;;
17987;SDS011;9119;50.932;5.342;2023-03-14T15:46:10;8.33;;;1.50;;
17987;SDS011;9119;50.932;5.342;2023-03-14T15:48:36;8.50;;;1.83;;
17987;SDS011;9119;50.932;5.342;2023-03-14T15:51:01;10.13;;;1.60;;
17987;SDS011;9119;50.932;5.342;2023-03-14T15:53:27;10.27;;;1.93;;
17987;SDS011;9119;50.932;5.342;2023-03-14T15:55:53;14.53;;;2.00;;
17987;SDS011;9119;50.932;5.342;2023-03-14T15:58:19;13.53;;;1.77;;
17987;SDS011;9119;50.932;5.342;2023-03-14T16:00:46;12.53;;;1.47;;
17987;SDS011;9119;50.932;5.342;2023-03-14T16:03:12;10.47;;;1.40;;
17987;SDS011;9119;50.932;5.342;2023-03-14T16:05:38;5.30;;;1.90;;
17987;SDS011;9119;50.932;5.342;2023-03-14T16:08:05;13.93;;;2.77;;
17987;SDS011;9119;50.932;5.342;2023-03-14T16:10:31;9.43;;;2.20;;
17987;SDS011;9119;50.932;5.342;2023-03-14T16:12:57;10.70;;;2.40;;
17987;SDS011;9119;50.932;5.342;2023-03-14T16:15:23;8.80;;;1.70;;
17987;SDS011;9119;50.932;5.342;2023-03-14T16:17:54;9.97;;;1.83;;
17987;SDS011;9119;50.932;5.342;2023-03-14T16:20:21;11.40;;;2.33;;
17987;SDS011;9119;50.932;5.342;2023-03-14T16:22:47;7.40;;;1.67;;
17987;SDS011;9119;50.932;5.342;2023-03-14T16:25:13;11.57;;;2.30;;
17987;SDS011;9119;50.932;5.342;2023-03-14T16:27:39;12.73;;;1.90;;